Aviation Digital Data Service (ADDS)

Output produced by METARs form (1604 UTC 21 September 2018)
found at http://www.aviationweather.gov/metar/data/
 
KBTP 211556Z AUTO 22012G19KT 10SM FEW032 28/21 A3004 RMK AO2 SLP169 T02780211
KBTP 211456Z AUTO 22010G16KT 10SM CLR 27/21 A3006 RMK AO2 SLP175 T02670211 56009
KBTP 211356Z AUTO 20009KT 10SM CLR 25/21 A3007 RMK AO2 SLP179 T02500211
KBTP 211256Z AUTO 20009KT 10SM CLR 23/21 A3008 RMK AO2 SLP182 T02330206
KBTP 211056Z AUTO 17005KT 10SM CLR 21/19 A3009 RMK AO2 SLP185 T02110194
KBTP 210956Z AUTO 18004KT 10SM CLR 21/19 A3009 RMK AO2 SLP185 T02110194
KBTP 210856Z AUTO 17004KT 10SM CLR 21/19 A3008 RMK AO2 SLP183 T02110194 55003
KBTP 210756Z AUTO 15005KT 10SM CLR 21/19 A3008 RMK AO2 SLP182 T02110194
KBTP 210656Z AUTO 16004KT 10SM CLR 21/19 A3008 RMK AO2 SLP184 T02110194
KBTP 210456Z AUTO 16005KT 10SM CLR 22/19 A3010 RMK AO2 SLP189 T02170194 402830133
KBTP 210356Z AUTO 16004KT 10SM CLR 22/19 A3010 RMK AO2 SLP189 T02220194
KBTP 210256Z AUTO 14003KT 10SM CLR 23/20 A3010 RMK AO2 SLP189 T02280200 58004
KBTP 210156Z AUTO 14003KT 10SM CLR 23/20 A3011 RMK AO2 SLP195 T02330200
KBTP 210056Z AUTO 13003KT 10SM CLR 24/20 A3012 RMK AO2 SLP197 T02390200
KBTP 202356Z AUTO 10003KT 10SM CLR 24/20 A3011 RMK AO2 SLP196 T02440200 10283 20244 53002
KBTP 202256Z AUTO 12004KT 10SM CLR 26/21 A3010 RMK AO2 SLP191 T02610206
KBTP 202156Z AUTO 12004KT 10SM CLR 28/21 A3010 RMK AO2 SLP191 T02780206
KBTP 202056Z AUTO 12006KT 10SM CLR 28/21 A3011 RMK AO2 SLP193 T02780206 56014
KBTP 201956Z AUTO 17004KT 10SM SCT037 28/20 A3012 RMK AO2 SLP197 T02780200
KBTP 201856Z AUTO 19005KT 10SM FEW034 27/20 A3013 RMK AO2 SLP201 T02720200
KBTP 201756Z AUTO 00000KT 8SM BKN032 26/20 A3015 RMK AO2 SLP208 T02610200 10272 20144 58010
KBTP 201656Z AUTO 16006KT 10SM CLR 26/19 A3016 RMK AO2 SLP212 T02560194